OIAH  Gachsaran  Airport

Gachsaran, Iran

Add Bookmark
ICAO OIAH
Type Airport
Status Operational
Latitude
30° 20' 15" N
30.337601
Longitude
50° 49' 40" E
50.827999
Local (GMT +3.5 ) UTC
Sep 25, 2016 05:28 am Sep 25, 2016 01:58
Sunrise-Sunset Local UTC
Begin Civil Twilight 05:31 am 02:01
Sunrise 05:55 am 02:25
Sunset 06:00 pm 14:30
End Civil Twilight 06:24 pm 14:54
VFR
VFR
MVFR
MVFR
IFR
IFR
LIFR
LIFR
Unknown
Unavailable

Current Weather

METAR Observed VFR
OIAH 250100Z 00000KT CAVOK 20/03 Q1009 Sun, Sep 25, 2016 @ 01:00 UTC
(58 Minutes ago)
Visual Flight Rules
Wind Visibility Conditions
Calm 10 km or more
  • No significant weather
Temperatures Readings Precipitation
Current Temp
20°C
68°F
Dewpoint
3°C
37°F
Humidity 33%
Altimeter 29.79" Hg
Sea Level Pressure 1,009 mb
Field Elevation
738 m
2,421 ft
None Recorded

Additional weather within a 92.6km radius of OIAH

Map ICAO Location
OISY 79.6km E/NE (059°)
VFR
VFR
MVFR
MVFR
IFR
IFR
LIFR
LIFR
Unknown
Unavailable
-
-

CheckWX.com is intended as a tool to help pilots better visualize weather data. It is not intended as a substitute for an official weather briefing obtained from a Flight Service Station. CheckWX.com does not meet the FAA requirements for an official pre-flight weather briefing. Therefore, it's important that pilots still call and obtain an official FSS pre-flight weather briefing.

© 2007-2016 CheckWX.com
01:58:23 UTC